Terminal Aerodrome Forecast
Issued by NWS

Current Version | Previous Version | Graphics & Text | Print | Product List | Glossary On
Versions: 1 2 3 4 5 6 7 8 9 10 11 12 13 14 15 16 17 18 19 20 21
272
FTUS41 KPBZ 280404 AAA
TAFMGW
TAF AMD
KMGW 280404Z 2804/2824 18004KT P6SM VCSH BKN080
     FM280500 17004KT 3SM -SHRA BR OVC060
     FM281300 21004KT 6SM -SHRA BR OVC025
     FM281900 27005KT 3SM -SHRA OVC010
     FM282100 32007KT P6SM OVC015=

USA.gov is the U.S. government's official web portal to all federal, state and local government web resources and services.